sensor_id;sensor_type;location;lat;lon;timestamp;pressure;altitude;pressure_sealevel;temperature;humidity
73453;BME280;61687;56.232;43.854;2022-12-18T00:00:41;100828.38;;;-2.59;79.00
73453;BME280;61687;56.232;43.854;2022-12-18T00:03:07;100820.06;;;-2.57;78.91
73453;BME280;61687;56.232;43.854;2022-12-18T00:05:33;100817.09;;;-2.56;78.71
73453;BME280;61687;56.232;43.854;2022-12-18T00:07:59;100816.56;;;-2.58;78.77
73453;BME280;61687;56.232;43.854;2022-12-18T00:10:25;100804.22;;;-2.59;78.63
73453;BME280;61687;56.232;43.854;2022-12-18T00:12:51;100799.69;;;-2.59;78.64
73453;BME280;61687;56.232;43.854;2022-12-18T00:15:17;100789.19;;;-2.60;78.61
73453;BME280;61687;56.232;43.854;2022-12-18T00:17:43;100783.28;;;-2.57;78.59
73453;BME280;61687;56.232;43.854;2022-12-18T00:20:09;100774.16;;;-2.56;78.50
73453;BME280;61687;56.232;43.854;2022-12-18T00:22:35;100759.69;;;-2.55;78.19
73453;BME280;61687;56.232;43.854;2022-12-18T00:25:01;100748.69;;;-2.53;77.92
73453;BME280;61687;56.232;43.854;2022-12-18T00:27:28;100740.91;;;-2.55;78.08
73453;BME280;61687;56.232;43.854;2022-12-18T00:29:54;100731.53;;;-2.57;77.83
73453;BME280;61687;56.232;43.854;2022-12-18T00:32:20;100721.34;;;-2.61;77.82
73453;BME280;61687;56.232;43.854;2022-12-18T00:34:46;100701.47;;;-2.60;77.94
73453;BME280;61687;56.232;43.854;2022-12-18T00:37:12;100705.50;;;-2.62;77.76
73453;BME280;61687;56.232;43.854;2022-12-18T00:39:38;100700.94;;;-2.62;77.72
73453;BME280;61687;56.232;43.854;2022-12-18T00:42:04;100687.78;;;-2.58;77.76
73453;BME280;61687;56.232;43.854;2022-12-18T00:44:48;100674.09;;;-2.56;77.52
73453;BME280;61687;56.232;43.854;2022-12-18T00:47:14;100664.44;;;-2.52;77.53
73453;BME280;61687;56.232;43.854;2022-12-18T00:49:40;100644.84;;;-2.53;77.41
73453;BME280;61687;56.232;43.854;2022-12-18T00:52:06;100634.38;;;-2.54;77.42
73453;BME280;61687;56.232;43.854;2022-12-18T00:54:32;100611.31;;;-2.55;77.56
73453;BME280;61687;56.232;43.854;2022-12-18T00:56:59;100622.03;;;-2.55;77.51
73453;BME280;61687;56.232;43.854;2022-12-18T00:59:25;100612.94;;;-2.60;77.83
73453;BME280;61687;56.232;43.854;2022-12-18T01:01:51;100602.19;;;-2.60;77.74
73453;BME280;61687;56.232;43.854;2022-12-18T01:04:19;100602.97;;;-2.59;77.80
73453;BME280;61687;56.232;43.854;2022-12-18T01:06:46;100585.03;;;-2.59;78.12
73453;BME280;61687;56.232;43.854;2022-12-18T01:09:13;100585.03;;;-2.59;77.92
73453;BME280;61687;56.232;43.854;2022-12-18T01:11:39;100589.31;;;-2.57;77.98
73453;BME280;61687;56.232;43.854;2022-12-18T01:14:05;100579.09;;;-2.55;77.90
73453;BME280;61687;56.232;43.854;2022-12-18T01:16:31;100573.75;;;-2.55;77.65
73453;BME280;61687;56.232;43.854;2022-12-18T01:18:57;100568.91;;;-2.53;77.62
73453;BME280;61687;56.232;43.854;2022-12-18T01:21:23;100560.88;;;-2.59;77.65
73453;BME280;61687;56.232;43.854;2022-12-18T01:23:54;100564.34;;;-2.58;77.84
73453;BME280;61687;56.232;43.854;2022-12-18T01:26:23;100576.69;;;-2.57;77.89
73453;BME280;61687;56.232;43.854;2022-12-18T01:28:50;100579.09;;;-2.55;77.80
73453;BME280;61687;56.232;43.854;2022-12-18T01:33:43;100575.06;;;-2.48;77.74
73453;BME280;61687;56.232;43.854;2022-12-18T01:36:23;100578.53;;;-2.47;77.78
73453;BME280;61687;56.232;43.854;2022-12-18T01:38:50;100568.59;;;-2.41;77.61
73453;BME280;61687;56.232;43.854;2022-12-18T01:41:23;100549.56;;;-2.40;77.74
73453;BME280;61687;56.232;43.854;2022-12-18T01:43:54;100545.50;;;-2.37;77.68
73453;BME280;61687;56.232;43.854;2022-12-18T01:46:24;100529.41;;;-2.37;78.04
73453;BME280;61687;56.232;43.854;2022-12-18T01:48:54;100516.00;;;-2.42;78.00
73453;BME280;61687;56.232;43.854;2022-12-18T01:51:23;100511.19;;;-2.46;78.31
73453;BME280;61687;56.232;43.854;2022-12-18T01:53:50;100502.59;;;-2.42;78.26
73453;BME280;61687;56.232;43.854;2022-12-18T01:56:18;100480.56;;;-2.39;78.59
73453;BME280;61687;56.232;43.854;2022-12-18T01:59:06;100458.03;;;-2.43;78.71
73453;BME280;61687;56.232;43.854;2022-12-18T02:01:35;100457.50;;;-2.46;78.64
73453;BME280;61687;56.232;43.854;2022-12-18T02:04:24;100433.66;;;-2.52;78.82
73453;BME280;61687;56.232;43.854;2022-12-18T02:10:24;100436.91;;;-2.55;79.15
73453;BME280;61687;56.232;43.854;2022-12-18T02:16:31;100441.69;;;-2.47;79.22
73453;BME280;61687;56.232;43.854;2022-12-18T02:18:30;100436.84;;;-2.45;78.90
73453;BME280;61687;56.232;43.854;2022-12-18T02:21:12;100439.50;;;-2.45;78.74
73453;BME280;61687;56.232;43.854;2022-12-18T02:23:56;100441.41;;;-2.46;79.02
73453;BME280;61687;56.232;43.854;2022-12-18T02:26:46;100441.16;;;-2.44;79.05
73453;BME280;61687;56.232;43.854;2022-12-18T02:29:39;100399.31;;;-2.50;79.21
73453;BME280;61687;56.232;43.854;2022-12-18T02:32:10;100350.72;;;-2.49;79.21
73453;BME280;61687;56.232;43.854;2022-12-18T02:34:39;100330.34;;;-2.50;79.16
73453;BME280;61687;56.232;43.854;2022-12-18T02:37:12;100318.31;;;-2.57;79.51
73453;BME280;61687;56.232;43.854;2022-12-18T02:39:42;100296.38;;;-2.65;79.79
73453;BME280;61687;56.232;43.854;2022-12-18T02:42:11;100283.53;;;-2.73;80.09
73453;BME280;61687;56.232;43.854;2022-12-18T02:44:44;100268.28;;;-2.78;80.34
73453;BME280;61687;56.232;43.854;2022-12-18T02:47:12;100265.94;;;-2.84;80.82
73453;BME280;61687;56.232;43.854;2022-12-18T02:49:55;100250.63;;;-2.84;80.93
73453;BME280;61687;56.232;43.854;2022-12-18T02:52:31;100225.72;;;-2.90;81.21
73453;BME280;61687;56.232;43.854;2022-12-18T03:01:09;100152.78;;;-2.92;82.12
73453;BME280;61687;56.232;43.854;2022-12-18T03:03:33;100158.66;;;-2.84;82.25
73453;BME280;61687;56.232;43.854;2022-12-18T03:06:17;100147.94;;;-2.84;81.97
73453;BME280;61687;56.232;43.854;2022-12-18T03:08:49;100138.22;;;-2.80;81.78
73453;BME280;61687;56.232;43.854;2022-12-18T03:11:17;100123.78;;;-2.84;81.75
73453;BME280;61687;56.232;43.854;2022-12-18T03:14:06;100105.03;;;-2.84;81.28
73453;BME280;61687;56.232;43.854;2022-12-18T03:16:34;100124.63;;;-2.89;81.41
73453;BME280;61687;56.232;43.854;2022-12-18T03:19:05;100116.78;;;-2.80;81.21
73453;BME280;61687;56.232;43.854;2022-12-18T03:21:40;100141.94;;;-2.76;81.15
73453;BME280;61687;56.232;43.854;2022-12-18T03:24:09;100146.47;;;-2.71;80.79
73453;BME280;61687;56.232;43.854;2022-12-18T03:26:41;100169.22;;;-2.69;80.66
73453;BME280;61687;56.232;43.854;2022-12-18T03:29:16;100189.28;;;-2.61;80.13
73453;BME280;61687;56.232;43.854;2022-12-18T03:31:54;100186.91;;;-2.63;80.23
73453;BME280;61687;56.232;43.854;2022-12-18T03:34:34;100190.31;;;-2.57;80.14
73453;BME280;61687;56.232;43.854;2022-12-18T03:37:05;100187.94;;;-2.59;79.92
73453;BME280;61687;56.232;43.854;2022-12-18T03:39:32;100173.44;;;-2.57;79.86
73453;BME280;61687;56.232;43.854;2022-12-18T03:42:07;100160.22;;;-2.49;79.86
73453;BME280;61687;56.232;43.854;2022-12-18T03:44:48;100139.03;;;-2.50;79.58
73453;BME280;61687;56.232;43.854;2022-12-18T03:47:31;100122.66;;;-2.49;79.56
73453;BME280;61687;56.232;43.854;2022-12-18T03:52:42;100107.31;;;-2.43;79.27
73453;BME280;61687;56.232;43.854;2022-12-18T03:55:12;100100.03;;;-2.42;79.46
73453;BME280;61687;56.232;43.854;2022-12-18T03:57:41;100108.59;;;-2.40;79.06
73453;BME280;61687;56.232;43.854;2022-12-18T04:00:18;100101.94;;;-2.43;79.48
73453;BME280;61687;56.232;43.854;2022-12-18T04:02:55;100097.09;;;-2.41;79.63
73453;BME280;61687;56.232;43.854;2022-12-18T04:05:32;100088.97;;;-2.36;79.59
73453;BME280;61687;56.232;43.854;2022-12-18T04:08:01;100083.53;;;-2.31;79.65
73453;BME280;61687;56.232;43.854;2022-12-18T04:10:27;100074.19;;;-2.33;79.63
73453;BME280;61687;56.232;43.854;2022-12-18T04:12:57;100079.75;;;-2.30;79.75
73453;BME280;61687;56.232;43.854;2022-12-18T04:15:24;100071.72;;;-2.30;79.76
73453;BME280;61687;56.232;43.854;2022-12-18T04:17:50;100065.75;;;-2.26;79.88
73453;BME280;61687;56.232;43.854;2022-12-18T04:20:20;100059.63;;;-2.27;79.75
73453;BME280;61687;56.232;43.854;2022-12-18T04:22:46;100066.28;;;-2.24;80.01
73453;BME280;61687;56.232;43.854;2022-12-18T04:25:13;100064.41;;;-2.24;79.97
73453;BME280;61687;56.232;43.854;2022-12-18T04:27:48;100067.09;;;-2.24;80.02
73453;BME280;61687;56.232;43.854;2022-12-18T04:30:14;100056.94;;;-2.27;80.15
73453;BME280;61687;56.232;43.854;2022-12-18T04:32:40;100042.13;;;-2.24;79.98
73453;BME280;61687;56.232;43.854;2022-12-18T04:35:08;100045.34;;;-2.22;80.16
73453;BME280;61687;56.232;43.854;2022-12-18T04:37:37;100027.16;;;-2.31;80.35
73453;BME280;61687;56.232;43.854;2022-12-18T04:40:04;100021.53;;;-2.29;80.30
73453;BME280;61687;56.232;43.854;2022-12-18T04:42:40;100019.34;;;-2.27;80.36
73453;BME280;61687;56.232;43.854;2022-12-18T04:45:07;100016.44;;;-2.31;80.47
73453;BME280;61687;56.232;43.854;2022-12-18T04:47:33;100019.84;;;-2.25;80.28
73453;BME280;61687;56.232;43.854;2022-12-18T04:49:59;100012.38;;;-2.28;80.13
73453;BME280;61687;56.232;43.854;2022-12-18T04:52:25;100008.31;;;-2.25;80.10
73453;BME280;61687;56.232;43.854;2022-12-18T04:54:50;100002.94;;;-2.25;79.98
73453;BME280;61687;56.232;43.854;2022-12-18T04:57:16;100007.75;;;-2.22;79.95
73453;BME280;61687;56.232;43.854;2022-12-18T04:59:44;100006.44;;;-2.25;79.94
73453;BME280;61687;56.232;43.854;2022-12-18T05:02:10;99990.59;;;-2.26;80.14
73453;BME280;61687;56.232;43.854;2022-12-18T05:04:36;99995.69;;;-2.25;80.30
73453;BME280;61687;56.232;43.854;2022-12-18T05:07:02;99991.41;;;-2.26;80.40
73453;BME280;61687;56.232;43.854;2022-12-18T05:09:28;99982.50;;;-2.21;80.37
73453;BME280;61687;56.232;43.854;2022-12-18T05:11:54;99985.19;;;-2.21;80.06
73453;BME280;61687;56.232;43.854;2022-12-18T05:14:20;99985.91;;;-2.16;80.39
73453;BME280;61687;56.232;43.854;2022-12-18T05:16:45;99979.16;;;-2.13;80.15
73453;BME280;61687;56.232;43.854;2022-12-18T05:19:11;99987.72;;;-2.11;79.96
73453;BME280;61687;56.232;43.854;2022-12-18T05:21:37;99981.00;;;-2.08;80.15
73453;BME280;61687;56.232;43.854;2022-12-18T05:24:03;99979.00;;;-2.03;80.11
73453;BME280;61687;56.232;43.854;2022-12-18T05:26:30;99964.78;;;-2.03;80.04
73453;BME280;61687;56.232;43.854;2022-12-18T05:28:55;99965.59;;;-2.03;79.73
73453;BME280;61687;56.232;43.854;2022-12-18T05:31:21;99952.47;;;-2.04;80.11
73453;BME280;61687;56.232;43.854;2022-12-18T05:33:47;99941.72;;;-2.04;79.94
73453;BME280;61687;56.232;43.854;2022-12-18T05:36:16;99938.72;;;-2.03;79.89
73453;BME280;61687;56.232;43.854;2022-12-18T05:38:42;99933.94;;;-2.06;79.96
73453;BME280;61687;56.232;43.854;2022-12-18T05:41:08;99934.53;;;-2.09;79.83
73453;BME280;61687;56.232;43.854;2022-12-18T05:43:36;99937.53;;;-2.10;80.01
73453;BME280;61687;56.232;43.854;2022-12-18T05:46:06;99935.13;;;-2.12;80.14
73453;BME280;61687;56.232;43.854;2022-12-18T05:48:33;99924.88;;;-2.10;80.00
73453;BME280;61687;56.232;43.854;2022-12-18T05:51:11;99940.41;;;-2.07;80.14
73453;BME280;61687;56.232;43.854;2022-12-18T05:53:37;99937.53;;;-2.10;80.22
73453;BME280;61687;56.232;43.854;2022-12-18T05:56:05;99932.84;;;-2.05;79.95
73453;BME280;61687;56.232;43.854;2022-12-18T05:58:31;99932.56;;;-2.03;80.04
73453;BME280;61687;56.232;43.854;2022-12-18T06:01:04;99933.50;;;-1.94;79.85
73453;BME280;61687;56.232;43.854;2022-12-18T06:03:31;99923.84;;;-1.95;79.90
73453;BME280;61687;56.232;43.854;2022-12-18T06:05:56;99914.63;;;-1.89;79.81
73453;BME280;61687;56.232;43.854;2022-12-18T06:08:22;99916.94;;;-1.82;79.71
73453;BME280;61687;56.232;43.854;2022-12-18T06:10:52;99903.72;;;-1.78;79.54
73453;BME280;61687;56.232;43.854;2022-12-18T06:13:19;99912.09;;;-1.80;79.50
73453;BME280;61687;56.232;43.854;2022-12-18T06:15:45;99905.91;;;-1.80;79.79
73453;BME280;61687;56.232;43.854;2022-12-18T06:18:11;99911.56;;;-1.82;79.75
73453;BME280;61687;56.232;43.854;2022-12-18T06:20:37;99917.47;;;-1.80;79.95
73453;BME280;61687;56.232;43.854;2022-12-18T06:23:05;99910.09;;;-1.74;80.02
73453;BME280;61687;56.232;43.854;2022-12-18T06:25:32;99911.91;;;-1.69;79.94
73453;BME280;61687;56.232;43.854;2022-12-18T06:27:58;99903.25;;;-1.66;79.91
73453;BME280;61687;56.232;43.854;2022-12-18T06:30:24;99899.38;;;-1.60;79.81
73453;BME280;61687;56.232;43.854;2022-12-18T06:32:50;99886.47;;;-1.58;79.74
73453;BME280;61687;56.232;43.854;2022-12-18T06:35:16;99886.38;;;-1.53;79.61
73453;BME280;61687;56.232;43.854;2022-12-18T06:37:42;99882.69;;;-1.57;79.56
73453;BME280;61687;56.232;43.854;2022-12-18T06:40:08;99888.06;;;-1.57;79.71
73453;BME280;61687;56.232;43.854;2022-12-18T06:42:34;99885.88;;;-1.55;79.67
73453;BME280;61687;56.232;43.854;2022-12-18T06:45:00;99877.31;;;-1.57;79.81
73453;BME280;61687;56.232;43.854;2022-12-18T06:47:26;99870.53;;;-1.54;79.77
73453;BME280;61687;56.232;43.854;2022-12-18T06:49:52;99861.88;;;-1.51;79.94
73453;BME280;61687;56.232;43.854;2022-12-18T06:52:17;99865.88;;;-1.49;79.86
73453;BME280;61687;56.232;43.854;2022-12-18T06:54:43;99859.41;;;-1.48;79.98
73453;BME280;61687;56.232;43.854;2022-12-18T06:57:09;99864.16;;;-1.45;79.89
73453;BME280;61687;56.232;43.854;2022-12-18T06:59:35;99854.22;;;-1.44;79.82
73453;BME280;61687;56.232;43.854;2022-12-18T07:02:01;99836.19;;;-1.44;79.80
73453;BME280;61687;56.232;43.854;2022-12-18T07:04:30;99842.38;;;-1.43;79.69
73453;BME280;61687;56.232;43.854;2022-12-18T07:06:56;99833.50;;;-1.44;79.58
73453;BME280;61687;56.232;43.854;2022-12-18T07:09:23;99835.09;;;-1.42;79.74
73453;BME280;61687;56.232;43.854;2022-12-18T07:11:49;99831.53;;;-1.38;79.58
73453;BME280;61687;56.232;43.854;2022-12-18T07:14:15;99841.78;;;-1.40;79.47
73453;BME280;61687;56.232;43.854;2022-12-18T07:16:41;99842.00;;;-1.36;79.38
73453;BME280;61687;56.232;43.854;2022-12-18T07:19:07;99838.78;;;-1.38;79.37
73453;BME280;61687;56.232;43.854;2022-12-18T07:21:32;99824.28;;;-1.37;79.35
73453;BME280;61687;56.232;43.854;2022-12-18T07:23:58;99815.91;;;-1.36;79.44
73453;BME280;61687;56.232;43.854;2022-12-18T07:26:24;99817.50;;;-1.35;79.25
73453;BME280;61687;56.232;43.854;2022-12-18T07:28:55;99806.03;;;-1.40;79.23
73453;BME280;61687;56.232;43.854;2022-12-18T07:31:21;99825.44;;;-1.44;79.47
73453;BME280;61687;56.232;43.854;2022-12-18T07:33:48;99824.34;;;-1.42;79.70
73453;BME280;61687;56.232;43.854;2022-12-18T07:36:14;99816.22;;;-1.37;79.68
73453;BME280;61687;56.232;43.854;2022-12-18T07:38:41;99819.97;;;-1.38;79.60
73453;BME280;61687;56.232;43.854;2022-12-18T07:41:09;99819.69;;;-1.37;79.71
73453;BME280;61687;56.232;43.854;2022-12-18T07:43:36;99811.81;;;-1.33;79.38
73453;BME280;61687;56.232;43.854;2022-12-18T07:46:02;99806.25;;;-1.37;79.47
73453;BME280;61687;56.232;43.854;2022-12-18T07:48:29;99807.06;;;-1.36;79.61
73453;BME280;61687;56.232;43.854;2022-12-18T07:50:59;99799.47;;;-1.34;79.73
73453;BME280;61687;56.232;43.854;2022-12-18T07:53:25;99795.88;;;-1.30;79.48
73453;BME280;61687;56.232;43.854;2022-12-18T07:55:59;99793.19;;;-1.30;79.29
73453;BME280;61687;56.232;43.854;2022-12-18T07:58:25;99789.13;;;-1.27;79.25
73453;BME280;61687;56.232;43.854;2022-12-18T08:00:51;99791.50;;;-1.25;79.13
73453;BME280;61687;56.232;43.854;2022-12-18T08:03:18;99793.59;;;-1.22;79.03
73453;BME280;61687;56.232;43.854;2022-12-18T08:05:44;99784.44;;;-1.21;79.05
73453;BME280;61687;56.232;43.854;2022-12-18T08:08:10;99784.94;;;-1.19;78.89
73453;BME280;61687;56.232;43.854;2022-12-18T08:10:37;99778.56;;;-1.23;78.93
73453;BME280;61687;56.232;43.854;2022-12-18T08:13:03;99782.13;;;-1.28;79.24
73453;BME280;61687;56.232;43.854;2022-12-18T08:15:29;99782.13;;;-1.28;79.23
73453;BME280;61687;56.232;43.854;2022-12-18T08:17:57;99772.38;;;-1.24;79.20
73453;BME280;61687;56.232;43.854;2022-12-18T08:20:23;99786.31;;;-1.22;79.25
73453;BME280;61687;56.232;43.854;2022-12-18T08:22:49;99783.00;;;-1.19;79.10
73453;BME280;61687;56.232;43.854;2022-12-18T08:25:15;99780.66;;;-1.20;79.00
73453;BME280;61687;56.232;43.854;2022-12-18T08:27:41;99789.13;;;-1.27;79.05
73453;BME280;61687;56.232;43.854;2022-12-18T08:30:07;99796.88;;;-1.39;78.96
73453;BME280;61687;56.232;43.854;2022-12-18T08:32:33;99799.66;;;-1.45;79.37
73453;BME280;61687;56.232;43.854;2022-12-18T08:34:59;99807.84;;;-1.50;79.40
73453;BME280;61687;56.232;43.854;2022-12-18T08:37:25;99814.41;;;-1.56;79.57
73453;BME280;61687;56.232;43.854;2022-12-18T08:39:51;99815.78;;;-1.59;79.50
73453;BME280;61687;56.232;43.854;2022-12-18T08:42:17;99812.50;;;-1.55;79.55
73453;BME280;61687;56.232;43.854;2022-12-18T08:45:02;99811.63;;;-1.51;79.34
73453;BME280;61687;56.232;43.854;2022-12-18T08:47:30;99808.63;;;-1.63;79.35
73453;BME280;61687;56.232;43.854;2022-12-18T08:49:55;99810.03;;;-1.66;79.23
73453;BME280;61687;56.232;43.854;2022-12-18T08:52:21;99810.03;;;-1.66;79.47
73453;BME280;61687;56.232;43.854;2022-12-18T08:54:47;99822.38;;;-1.65;79.45
73453;BME280;61687;56.232;43.854;2022-12-18T08:57:13;99808.22;;;-1.70;79.15
73453;BME280;61687;56.232;43.854;2022-12-18T08:59:38;99804.72;;;-1.71;79.33
73453;BME280;61687;56.232;43.854;2022-12-18T09:02:05;99811.13;;;-1.67;79.21
73453;BME280;61687;56.232;43.854;2022-12-18T09:04:30;99816.78;;;-1.68;79.21
73453;BME280;61687;56.232;43.854;2022-12-18T09:06:56;99817.06;;;-1.70;78.99
73453;BME280;61687;56.232;43.854;2022-12-18T09:09:22;99824.63;;;-1.72;79.08
73453;BME280;61687;56.232;43.854;2022-12-18T09:11:48;99817.59;;;-1.68;79.08
73453;BME280;61687;56.232;43.854;2022-12-18T09:14:14;99814.91;;;-1.68;78.71
73453;BME280;61687;56.232;43.854;2022-12-18T09:16:40;99819.97;;;-1.66;78.83
73453;BME280;61687;56.232;43.854;2022-12-18T09:19:06;99813.72;;;-1.62;78.45
73453;BME280;61687;56.232;43.854;2022-12-18T09:21:33;99811.31;;;-1.63;78.41
73453;BME280;61687;56.232;43.854;2022-12-18T09:24:03;99814.50;;;-1.61;78.38
73453;BME280;61687;56.232;43.854;2022-12-18T09:26:29;99816.38;;;-1.62;78.22
73453;BME280;61687;56.232;43.854;2022-12-18T09:28:55;99819.56;;;-1.60;78.08
73453;BME280;61687;56.232;43.854;2022-12-18T09:31:23;99815.00;;;-1.59;77.84
73453;BME280;61687;56.232;43.854;2022-12-18T09:33:50;99812.41;;;-1.64;77.90
73453;BME280;61687;56.232;43.854;2022-12-18T09:36:17;99818.88;;;-1.65;77.76
73453;BME280;61687;56.232;43.854;2022-12-18T09:38:44;99821.88;;;-1.67;77.79
73453;BME280;61687;56.232;43.854;2022-12-18T09:44:00;99816.53;;;-1.86;78.19
73453;BME280;61687;56.232;43.854;2022-12-18T09:46:30;99821.53;;;-1.79;78.25
73453;BME280;61687;56.232;43.854;2022-12-18T09:49:00;99815.66;;;-1.81;78.30
73453;BME280;61687;56.232;43.854;2022-12-18T09:51:32;99813.09;;;-1.87;78.11
73453;BME280;61687;56.232;43.854;2022-12-18T09:54:02;99821.41;;;-2.02;78.29
73453;BME280;61687;56.232;43.854;2022-12-18T09:56:34;99820.50;;;-2.11;78.42
73453;BME280;61687;56.232;43.854;2022-12-18T09:59:03;99824.22;;;-2.12;78.34
73453;BME280;61687;56.232;43.854;2022-12-18T10:01:30;99833.06;;;-2.26;78.19
73453;BME280;61687;56.232;43.854;2022-12-18T10:03:57;99833.72;;;-2.34;78.67
73453;BME280;61687;56.232;43.854;2022-12-18T10:09:42;99831.34;;;-2.36;78.79
73453;BME280;61687;56.232;43.854;2022-12-18T10:14:57;99832.13;;;-2.35;78.83
73453;BME280;61687;56.232;43.854;2022-12-18T10:17:52;99847.06;;;-2.29;78.64
73453;BME280;61687;56.232;43.854;2022-12-18T10:20:32;99843.28;;;-2.28;78.32
73453;BME280;61687;56.232;43.854;2022-12-18T10:25:50;99849.06;;;-2.54;78.59
73453;BME280;61687;56.232;43.854;2022-12-18T10:28:19;99852.00;;;-2.55;79.17
73453;BME280;61687;56.232;43.854;2022-12-18T10:30:46;99858.47;;;-2.56;79.26
73453;BME280;61687;56.232;43.854;2022-12-18T10:33:16;99863.31;;;-2.59;79.45
73453;BME280;61687;56.232;43.854;2022-12-18T10:35:42;99881.78;;;-2.57;79.01
73453;BME280;61687;56.232;43.854;2022-12-18T10:40:56;99888.75;;;-2.75;79.33
73453;BME280;61687;56.232;43.854;2022-12-18T10:43:28;99883.38;;;-2.75;79.50
73453;BME280;61687;56.232;43.854;2022-12-18T10:48:36;99881.22;;;-2.73;79.72
73453;BME280;61687;56.232;43.854;2022-12-18T10:51:06;99893.53;;;-2.72;79.16
73453;BME280;61687;56.232;43.854;2022-12-18T10:53:35;99893.09;;;-2.79;79.11
73453;BME280;61687;56.232;43.854;2022-12-18T10:56:03;99894.69;;;-2.78;79.61
73453;BME280;61687;56.232;43.854;2022-12-18T10:58:35;99889.91;;;-2.81;79.38
73453;BME280;61687;56.232;43.854;2022-12-18T11:01:08;99879.03;;;-2.90;78.96
73453;BME280;61687;56.232;43.854;2022-12-18T11:03:45;99887.25;;;-3.06;78.96
73453;BME280;61687;56.232;43.854;2022-12-18T11:06:14;99885.88;;;-3.03;79.47
73453;BME280;61687;56.232;43.854;2022-12-18T11:08:44;99890.16;;;-3.02;79.14
73453;BME280;61687;56.232;43.854;2022-12-18T11:11:23;99909.00;;;-3.07;79.00
73453;BME280;61687;56.232;43.854;2022-12-18T11:16:28;99912.00;;;-3.14;79.58
73453;BME280;61687;56.232;43.854;2022-12-18T11:21:41;99921.56;;;-3.32;78.80
73453;BME280;61687;56.232;43.854;2022-12-18T11:26:54;99932.25;;;-3.27;78.99
73453;BME280;61687;56.232;43.854;2022-12-18T11:29:28;99931.88;;;-3.45;78.64
73453;BME280;61687;56.232;43.854;2022-12-18T11:32:21;99929.72;;;-3.42;79.43
73453;BME280;61687;56.232;43.854;2022-12-18T11:35:01;99937.41;;;-3.36;79.16
73453;BME280;61687;56.232;43.854;2022-12-18T11:37:29;99943.84;;;-3.37;79.12
73453;BME280;61687;56.232;43.854;2022-12-18T11:40:06;99950.00;;;-3.36;79.24
73453;BME280;61687;56.232;43.854;2022-12-18T11:42:41;99958.38;;;-3.43;78.98
73453;BME280;61687;56.232;43.854;2022-12-18T11:47:40;99970.47;;;-3.51;78.95
73453;BME280;61687;56.232;43.854;2022-12-18T11:50:22;99976.38;;;-3.49;79.33
73453;BME280;61687;56.232;43.854;2022-12-18T11:52:49;99982.28;;;-3.52;79.21
73453;BME280;61687;56.232;43.854;2022-12-18T11:55:25;99975.06;;;-3.51;79.15
73453;BME280;61687;56.232;43.854;2022-12-18T12:00:49;100002.31;;;-3.44;78.79
73453;BME280;61687;56.232;43.854;2022-12-18T12:03:51;99997.84;;;-3.54;78.42
73453;BME280;61687;56.232;43.854;2022-12-18T12:09:20;100012.97;;;-3.68;78.50
73453;BME280;61687;56.232;43.854;2022-12-18T12:17:54;100030.47;;;-3.86;78.25
73453;BME280;61687;56.232;43.854;2022-12-18T12:23:28;100029.72;;;-3.92;78.29
73453;BME280;61687;56.232;43.854;2022-12-18T12:26:06;100046.56;;;-3.92;78.44
73453;BME280;61687;56.232;43.854;2022-12-18T12:28:52;100051.66;;;-3.95;78.80
73453;BME280;61687;56.232;43.854;2022-12-18T12:37:25;100082.81;;;-4.10;79.12
73453;BME280;61687;56.232;43.854;2022-12-18T12:39:54;100098.56;;;-4.08;79.01
73453;BME280;61687;56.232;43.854;2022-12-18T12:42:34;100109.56;;;-4.15;79.38
73453;BME280;61687;56.232;43.854;2022-12-18T12:45:26;100107.72;;;-4.25;79.24
73453;BME280;61687;56.232;43.854;2022-12-18T12:47:55;100114.44;;;-4.27;79.15
73453;BME280;61687;56.232;43.854;2022-12-18T12:50:24;100123.25;;;-4.32;79.23
73453;BME280;61687;56.232;43.854;2022-12-18T12:52:53;100123.03;;;-4.41;79.31
73453;BME280;61687;56.232;43.854;2022-12-18T12:55:22;100136.69;;;-4.42;79.36
73453;BME280;61687;56.232;43.854;2022-12-18T12:58:36;100143.63;;;-4.47;79.24
73453;BME280;61687;56.232;43.854;2022-12-18T13:06:37;100145.03;;;-4.75;80.27
73453;BME280;61687;56.232;43.854;2022-12-18T13:09:06;100151.44;;;-4.76;80.19
73453;BME280;61687;56.232;43.854;2022-12-18T13:11:36;100152.22;;;-4.76;80.31
73453;BME280;61687;56.232;43.854;2022-12-18T13:14:33;100162.91;;;-4.76;80.16
73453;BME280;61687;56.232;43.854;2022-12-18T13:19:55;100180.81;;;-4.81;80.38
73453;BME280;61687;56.232;43.854;2022-12-18T13:22:36;100192.59;;;-4.93;80.21
73453;BME280;61687;56.232;43.854;2022-12-18T13:25:33;100187.25;;;-4.93;80.11
73453;BME280;61687;56.232;43.854;2022-12-18T13:48:52;100218.00;;;-4.80;79.32
73453;BME280;61687;56.232;43.854;2022-12-18T13:51:20;100228.41;;;-4.89;79.10
73453;BME280;61687;56.232;43.854;2022-12-18T13:53:53;100242.84;;;-4.95;78.90
73453;BME280;61687;56.232;43.854;2022-12-18T13:56:28;100242.81;;;-5.10;78.59
73453;BME280;61687;56.232;43.854;2022-12-18T13:59:13;100252.94;;;-5.18;78.99
73453;BME280;61687;56.232;43.854;2022-12-18T14:01:48;100248.09;;;-5.21;79.02
73453;BME280;61687;56.232;43.854;2022-12-18T14:07:06;100268.69;;;-5.21;78.74
73453;BME280;61687;56.232;43.854;2022-12-18T14:09:40;100261.44;;;-5.31;78.71
73453;BME280;61687;56.232;43.854;2022-12-18T14:12:15;100264.41;;;-5.27;78.58
73453;BME280;61687;56.232;43.854;2022-12-18T14:17:53;100288.97;;;-5.30;78.16
73453;BME280;61687;56.232;43.854;2022-12-18T14:20:21;100292.94;;;-5.33;78.25
73453;BME280;61687;56.232;43.854;2022-12-18T14:22:48;100304.69;;;-5.34;78.19
73453;BME280;61687;56.232;43.854;2022-12-18T14:25:20;100303.63;;;-5.38;77.56
73453;BME280;61687;56.232;43.854;2022-12-18T14:27:50;100310.56;;;-5.37;77.68
73453;BME280;61687;56.232;43.854;2022-12-18T14:35:36;100316.97;;;-5.38;77.15
73453;BME280;61687;56.232;43.854;2022-12-18T14:38:26;100318.28;;;-5.41;77.30
73453;BME280;61687;56.232;43.854;2022-12-18T14:40:57;100304.41;;;-5.38;77.04
73453;BME280;61687;56.232;43.854;2022-12-18T14:43:27;100310.03;;;-5.39;77.04
73453;BME280;61687;56.232;43.854;2022-12-18T14:45:53;100322.34;;;-5.33;76.95